sensor_id;sensor_type;location;lat;lon;timestamp;P1;durP1;ratioP1;P2;durP2;ratioP2
71207;SDS011;58938;49.868;8.646;2023-04-26T00:02:01;9.52;;;4.85;;
71207;SDS011;58938;49.868;8.646;2023-04-26T00:04:29;8.52;;;5.18;;
71207;SDS011;58938;49.868;8.646;2023-04-26T00:06:55;11.82;;;4.72;;
71207;SDS011;58938;49.868;8.646;2023-04-26T00:09:21;11.07;;;5.00;;
71207;SDS011;58938;49.868;8.646;2023-04-26T00:11:47;7.90;;;4.97;;
71207;SDS011;58938;49.868;8.646;2023-04-26T00:14:14;9.85;;;4.70;;
71207;SDS011;58938;49.868;8.646;2023-04-26T00:16:40;9.85;;;5.28;;
71207;SDS011;58938;49.868;8.646;2023-04-26T00:19:05;12.70;;;5.00;;
71207;SDS011;58938;49.868;8.646;2023-04-26T00:21:32;11.33;;;4.33;;
71207;SDS011;58938;49.868;8.646;2023-04-26T00:23:58;8.85;;;4.60;;
71207;SDS011;58938;49.868;8.646;2023-04-26T00:26:24;8.05;;;5.05;;
71207;SDS011;58938;49.868;8.646;2023-04-26T00:28:50;9.38;;;4.32;;
71207;SDS011;58938;49.868;8.646;2023-04-26T00:31:16;9.43;;;4.95;;
71207;SDS011;58938;49.868;8.646;2023-04-26T00:33:42;10.47;;;4.97;;
71207;SDS011;58938;49.868;8.646;2023-04-26T00:36:08;10.32;;;5.43;;
71207;SDS011;58938;49.868;8.646;2023-04-26T00:38:34;8.10;;;4.70;;
71207;SDS011;58938;49.868;8.646;2023-04-26T00:41:00;10.10;;;4.78;;
71207;SDS011;58938;49.868;8.646;2023-04-26T00:43:27;8.27;;;4.43;;
71207;SDS011;58938;49.868;8.646;2023-04-26T00:45:53;9.40;;;5.20;;
71207;SDS011;58938;49.868;8.646;2023-04-26T00:48:19;7.85;;;4.57;;
71207;SDS011;58938;49.868;8.646;2023-04-26T00:50:45;6.78;;;3.92;;
71207;SDS011;58938;49.868;8.646;2023-04-26T00:53:12;12.52;;;5.68;;
71207;SDS011;58938;49.868;8.646;2023-04-26T00:55:39;8.30;;;4.40;;
71207;SDS011;58938;49.868;8.646;2023-04-26T00:58:05;10.95;;;5.57;;
71207;SDS011;58938;49.868;8.646;2023-04-26T01:00:31;9.93;;;4.85;;
71207;SDS011;58938;49.868;8.646;2023-04-26T01:02:58;10.25;;;4.55;;
71207;SDS011;58938;49.868;8.646;2023-04-26T01:05:24;7.57;;;4.17;;
71207;SDS011;58938;49.868;8.646;2023-04-26T01:07:50;8.75;;;4.30;;
71207;SDS011;58938;49.868;8.646;2023-04-26T01:10:16;9.82;;;5.47;;
71207;SDS011;58938;49.868;8.646;2023-04-26T01:12:42;7.15;;;4.25;;
71207;SDS011;58938;49.868;8.646;2023-04-26T01:15:09;7.28;;;4.55;;
71207;SDS011;58938;49.868;8.646;2023-04-26T01:17:35;9.93;;;4.83;;
71207;SDS011;58938;49.868;8.646;2023-04-26T01:20:01;10.00;;;4.95;;
71207;SDS011;58938;49.868;8.646;2023-04-26T01:22:31;8.43;;;4.68;;
71207;SDS011;58938;49.868;8.646;2023-04-26T01:24:57;9.95;;;5.13;;
71207;SDS011;58938;49.868;8.646;2023-04-26T01:27:24;7.40;;;4.85;;
71207;SDS011;58938;49.868;8.646;2023-04-26T01:29:50;9.10;;;4.73;;
71207;SDS011;58938;49.868;8.646;2023-04-26T01:32:16;11.95;;;5.05;;
71207;SDS011;58938;49.868;8.646;2023-04-26T01:34:42;8.32;;;5.13;;
71207;SDS011;58938;49.868;8.646;2023-04-26T01:37:08;11.48;;;6.05;;
71207;SDS011;58938;49.868;8.646;2023-04-26T01:39:34;8.43;;;4.77;;
71207;SDS011;58938;49.868;8.646;2023-04-26T01:42:00;10.88;;;4.78;;
71207;SDS011;58938;49.868;8.646;2023-04-26T01:44:27;11.55;;;5.20;;
71207;SDS011;58938;49.868;8.646;2023-04-26T01:46:53;8.75;;;4.38;;
71207;SDS011;58938;49.868;8.646;2023-04-26T01:49:19;7.93;;;4.70;;
71207;SDS011;58938;49.868;8.646;2023-04-26T01:51:45;10.93;;;5.03;;
71207;SDS011;58938;49.868;8.646;2023-04-26T01:54:11;9.43;;;4.68;;
71207;SDS011;58938;49.868;8.646;2023-04-26T01:56:37;12.75;;;5.53;;
71207;SDS011;58938;49.868;8.646;2023-04-26T01:59:02;11.02;;;5.18;;
71207;SDS011;58938;49.868;8.646;2023-04-26T02:01:28;8.50;;;4.93;;
71207;SDS011;58938;49.868;8.646;2023-04-26T02:03:55;9.20;;;4.75;;
71207;SDS011;58938;49.868;8.646;2023-04-26T02:06:21;8.55;;;4.90;;
71207;SDS011;58938;49.868;8.646;2023-04-26T02:08:47;7.75;;;4.82;;
71207;SDS011;58938;49.868;8.646;2023-04-26T02:11:13;10.15;;;5.15;;
71207;SDS011;58938;49.868;8.646;2023-04-26T02:13:39;7.90;;;4.20;;
71207;SDS011;58938;49.868;8.646;2023-04-26T02:16:05;8.02;;;4.65;;
71207;SDS011;58938;49.868;8.646;2023-04-26T02:18:31;10.35;;;5.05;;
71207;SDS011;58938;49.868;8.646;2023-04-26T02:20:58;9.05;;;4.72;;
71207;SDS011;58938;49.868;8.646;2023-04-26T02:23:24;10.88;;;5.22;;
71207;SDS011;58938;49.868;8.646;2023-04-26T02:25:50;10.80;;;5.03;;
71207;SDS011;58938;49.868;8.646;2023-04-26T02:28:16;8.98;;;4.70;;
71207;SDS011;58938;49.868;8.646;2023-04-26T02:30:42;10.77;;;5.30;;
71207;SDS011;58938;49.868;8.646;2023-04-26T02:33:09;12.18;;;4.82;;
71207;SDS011;58938;49.868;8.646;2023-04-26T02:35:35;11.90;;;4.63;;
71207;SDS011;58938;49.868;8.646;2023-04-26T02:38:01;10.75;;;5.40;;
71207;SDS011;58938;49.868;8.646;2023-04-26T02:40:27;9.60;;;4.82;;
71207;SDS011;58938;49.868;8.646;2023-04-26T02:42:54;9.80;;;4.55;;
71207;SDS011;58938;49.868;8.646;2023-04-26T02:45:20;9.65;;;4.97;;
71207;SDS011;58938;49.868;8.646;2023-04-26T02:47:46;8.00;;;4.87;;
71207;SDS011;58938;49.868;8.646;2023-04-26T02:50:12;11.15;;;5.55;;
71207;SDS011;58938;49.868;8.646;2023-04-26T02:52:38;8.93;;;5.20;;
71207;SDS011;58938;49.868;8.646;2023-04-26T02:55:04;10.35;;;4.88;;
71207;SDS011;58938;49.868;8.646;2023-04-26T02:57:31;10.60;;;5.00;;
71207;SDS011;58938;49.868;8.646;2023-04-26T02:59:57;8.27;;;4.93;;
71207;SDS011;58938;49.868;8.646;2023-04-26T03:02:23;13.68;;;5.38;;
71207;SDS011;58938;49.868;8.646;2023-04-26T03:04:49;10.13;;;4.70;;
71207;SDS011;58938;49.868;8.646;2023-04-26T03:07:15;11.98;;;5.20;;
71207;SDS011;58938;49.868;8.646;2023-04-26T03:09:41;10.30;;;4.77;;
71207;SDS011;58938;49.868;8.646;2023-04-26T03:12:07;10.77;;;4.95;;
71207;SDS011;58938;49.868;8.646;2023-04-26T03:14:34;9.40;;;5.53;;
71207;SDS011;58938;49.868;8.646;2023-04-26T03:17:00;11.85;;;5.20;;
71207;SDS011;58938;49.868;8.646;2023-04-26T03:19:26;12.52;;;5.53;;
71207;SDS011;58938;49.868;8.646;2023-04-26T03:21:53;9.07;;;5.00;;
71207;SDS011;58938;49.868;8.646;2023-04-26T03:24:19;11.25;;;6.00;;
71207;SDS011;58938;49.868;8.646;2023-04-26T03:26:45;10.02;;;5.95;;
71207;SDS011;58938;49.868;8.646;2023-04-26T03:29:11;10.25;;;5.85;;
71207;SDS011;58938;49.868;8.646;2023-04-26T03:31:37;11.17;;;5.07;;
71207;SDS011;58938;49.868;8.646;2023-04-26T03:34:03;12.82;;;5.80;;
71207;SDS011;58938;49.868;8.646;2023-04-26T03:36:30;13.32;;;5.35;;
71207;SDS011;58938;49.868;8.646;2023-04-26T03:38:56;9.32;;;5.50;;
71207;SDS011;58938;49.868;8.646;2023-04-26T03:41:22;9.63;;;5.37;;
71207;SDS011;58938;49.868;8.646;2023-04-26T03:43:48;9.40;;;5.32;;
71207;SDS011;58938;49.868;8.646;2023-04-26T03:46:14;11.85;;;5.00;;
71207;SDS011;58938;49.868;8.646;2023-04-26T03:48:40;8.85;;;5.53;;
71207;SDS011;58938;49.868;8.646;2023-04-26T03:51:06;9.37;;;4.67;;
71207;SDS011;58938;49.868;8.646;2023-04-26T03:53:32;10.82;;;6.13;;
71207;SDS011;58938;49.868;8.646;2023-04-26T03:55:58;9.52;;;5.30;;
71207;SDS011;58938;49.868;8.646;2023-04-26T03:58:24;11.48;;;6.13;;
71207;SDS011;58938;49.868;8.646;2023-04-26T04:00:50;12.45;;;6.00;;
71207;SDS011;58938;49.868;8.646;2023-04-26T04:03:16;8.60;;;4.70;;
71207;SDS011;58938;49.868;8.646;2023-04-26T04:05:42;13.00;;;6.15;;
71207;SDS011;58938;49.868;8.646;2023-04-26T04:08:08;17.80;;;7.78;;
71207;SDS011;58938;49.868;8.646;2023-04-26T04:10:35;15.02;;;7.60;;
71207;SDS011;58938;49.868;8.646;2023-04-26T04:13:02;13.80;;;6.60;;
71207;SDS011;58938;49.868;8.646;2023-04-26T04:15:27;16.00;;;6.97;;
71207;SDS011;58938;49.868;8.646;2023-04-26T04:17:53;13.93;;;7.43;;
71207;SDS011;58938;49.868;8.646;2023-04-26T04:20:19;19.88;;;9.98;;
71207;SDS011;58938;49.868;8.646;2023-04-26T04:22:46;23.20;;;10.47;;
71207;SDS011;58938;49.868;8.646;2023-04-26T04:25:11;18.90;;;8.27;;
71207;SDS011;58938;49.868;8.646;2023-04-26T04:27:38;16.38;;;8.13;;
71207;SDS011;58938;49.868;8.646;2023-04-26T04:30:06;14.88;;;7.32;;
71207;SDS011;58938;49.868;8.646;2023-04-26T04:32:33;26.88;;;12.48;;
71207;SDS011;58938;49.868;8.646;2023-04-26T04:34:59;17.80;;;7.90;;
71207;SDS011;58938;49.868;8.646;2023-04-26T04:37:25;18.27;;;8.30;;
71207;SDS011;58938;49.868;8.646;2023-04-26T04:39:52;14.27;;;7.05;;
71207;SDS011;58938;49.868;8.646;2023-04-26T04:42:18;16.05;;;7.70;;
71207;SDS011;58938;49.868;8.646;2023-04-26T04:44:45;13.13;;;6.93;;
71207;SDS011;58938;49.868;8.646;2023-04-26T04:47:11;12.77;;;5.67;;
71207;SDS011;58938;49.868;8.646;2023-04-26T04:49:37;12.98;;;6.60;;
71207;SDS011;58938;49.868;8.646;2023-04-26T04:52:04;11.32;;;6.30;;
71207;SDS011;58938;49.868;8.646;2023-04-26T04:54:30;10.63;;;6.55;;
71207;SDS011;58938;49.868;8.646;2023-04-26T04:56:56;12.27;;;5.90;;
71207;SDS011;58938;49.868;8.646;2023-04-26T04:59:23;13.65;;;5.70;;
71207;SDS011;58938;49.868;8.646;2023-04-26T05:01:49;11.57;;;6.40;;
71207;SDS011;58938;49.868;8.646;2023-04-26T05:04:15;13.90;;;5.97;;
71207;SDS011;58938;49.868;8.646;2023-04-26T05:06:41;10.07;;;5.82;;
71207;SDS011;58938;49.868;8.646;2023-04-26T05:09:07;10.70;;;5.90;;
71207;SDS011;58938;49.868;8.646;2023-04-26T05:11:34;14.63;;;6.07;;
71207;SDS011;58938;49.868;8.646;2023-04-26T05:14:00;12.10;;;5.78;;
71207;SDS011;58938;49.868;8.646;2023-04-26T05:16:26;12.82;;;5.40;;
71207;SDS011;58938;49.868;8.646;2023-04-26T05:18:52;10.57;;;6.07;;
71207;SDS011;58938;49.868;8.646;2023-04-26T05:21:18;11.37;;;5.83;;
71207;SDS011;58938;49.868;8.646;2023-04-26T05:23:44;10.30;;;6.00;;
71207;SDS011;58938;49.868;8.646;2023-04-26T05:26:14;12.63;;;6.60;;
71207;SDS011;58938;49.868;8.646;2023-04-26T05:28:40;12.20;;;6.38;;
71207;SDS011;58938;49.868;8.646;2023-04-26T05:31:07;12.43;;;6.85;;
71207;SDS011;58938;49.868;8.646;2023-04-26T05:33:33;12.23;;;5.97;;
71207;SDS011;58938;49.868;8.646;2023-04-26T05:35:59;11.13;;;6.60;;
71207;SDS011;58938;49.868;8.646;2023-04-26T05:38:26;12.98;;;6.30;;
71207;SDS011;58938;49.868;8.646;2023-04-26T05:40:52;11.80;;;6.22;;
71207;SDS011;58938;49.868;8.646;2023-04-26T05:43:18;14.77;;;6.23;;
71207;SDS011;58938;49.868;8.646;2023-04-26T05:45:53;12.45;;;6.38;;
71207;SDS011;58938;49.868;8.646;2023-04-26T05:48:19;12.43;;;6.25;;
71207;SDS011;58938;49.868;8.646;2023-04-26T05:50:49;14.15;;;6.85;;
71207;SDS011;58938;49.868;8.646;2023-04-26T05:53:16;10.30;;;5.80;;
71207;SDS011;58938;49.868;8.646;2023-04-26T05:55:43;13.70;;;6.53;;
71207;SDS011;58938;49.868;8.646;2023-04-26T05:58:09;13.77;;;6.70;;
71207;SDS011;58938;49.868;8.646;2023-04-26T06:00:35;11.35;;;6.75;;
71207;SDS011;58938;49.868;8.646;2023-04-26T06:03:02;12.55;;;6.70;;
71207;SDS011;58938;49.868;8.646;2023-04-26T06:05:28;10.43;;;6.57;;
71207;SDS011;58938;49.868;8.646;2023-04-26T06:07:54;15.32;;;6.60;;
71207;SDS011;58938;49.868;8.646;2023-04-26T06:10:21;13.88;;;7.95;;
71207;SDS011;58938;49.868;8.646;2023-04-26T06:12:47;12.27;;;7.03;;
71207;SDS011;58938;49.868;8.646;2023-04-26T06:15:13;14.63;;;6.78;;
71207;SDS011;58938;49.868;8.646;2023-04-26T06:17:39;15.80;;;7.77;;
71207;SDS011;58938;49.868;8.646;2023-04-26T06:20:06;11.32;;;6.65;;
71207;SDS011;58938;49.868;8.646;2023-04-26T06:22:34;12.73;;;7.13;;
71207;SDS011;58938;49.868;8.646;2023-04-26T06:25:00;11.75;;;6.10;;
71207;SDS011;58938;49.868;8.646;2023-04-26T06:27:26;14.80;;;7.53;;
71207;SDS011;58938;49.868;8.646;2023-04-26T06:29:52;15.83;;;5.97;;
71207;SDS011;58938;49.868;8.646;2023-04-26T06:32:17;14.80;;;7.10;;
71207;SDS011;58938;49.868;8.646;2023-04-26T06:34:43;13.10;;;6.28;;
71207;SDS011;58938;49.868;8.646;2023-04-26T06:37:10;13.30;;;6.43;;
71207;SDS011;58938;49.868;8.646;2023-04-26T06:39:36;14.73;;;6.93;;
71207;SDS011;58938;49.868;8.646;2023-04-26T06:42:02;12.73;;;7.45;;
71207;SDS011;58938;49.868;8.646;2023-04-26T06:44:29;13.38;;;7.53;;
71207;SDS011;58938;49.868;8.646;2023-04-26T06:46:55;12.95;;;7.28;;
71207;SDS011;58938;49.868;8.646;2023-04-26T06:49:21;16.20;;;6.55;;
71207;SDS011;58938;49.868;8.646;2023-04-26T06:51:47;17.10;;;7.37;;
71207;SDS011;58938;49.868;8.646;2023-04-26T06:54:13;13.27;;;6.63;;
71207;SDS011;58938;49.868;8.646;2023-04-26T06:56:39;17.77;;;8.63;;
71207;SDS011;58938;49.868;8.646;2023-04-26T06:59:06;13.45;;;6.90;;
71207;SDS011;58938;49.868;8.646;2023-04-26T07:01:32;13.63;;;7.65;;
71207;SDS011;58938;49.868;8.646;2023-04-26T07:03:59;12.80;;;6.90;;
71207;SDS011;58938;49.868;8.646;2023-04-26T07:06:28;14.30;;;6.60;;
71207;SDS011;58938;49.868;8.646;2023-04-26T07:08:56;12.65;;;7.57;;
71207;SDS011;58938;49.868;8.646;2023-04-26T07:11:22;13.80;;;7.55;;
71207;SDS011;58938;49.868;8.646;2023-04-26T07:13:48;12.68;;;6.70;;
71207;SDS011;58938;49.868;8.646;2023-04-26T07:16:15;17.33;;;7.00;;
71207;SDS011;58938;49.868;8.646;2023-04-26T07:18:41;14.85;;;6.68;;
71207;SDS011;58938;49.868;8.646;2023-04-26T07:21:07;13.35;;;6.22;;
71207;SDS011;58938;49.868;8.646;2023-04-26T07:23:33;11.50;;;5.68;;
71207;SDS011;58938;49.868;8.646;2023-04-26T07:26:00;13.60;;;5.97;;
71207;SDS011;58938;49.868;8.646;2023-04-26T07:28:28;13.45;;;5.45;;
71207;SDS011;58938;49.868;8.646;2023-04-26T07:30:54;11.15;;;6.03;;
71207;SDS011;58938;49.868;8.646;2023-04-26T07:33:20;11.93;;;6.10;;
71207;SDS011;58938;49.868;8.646;2023-04-26T07:35:52;8.98;;;5.88;;
71207;SDS011;58938;49.868;8.646;2023-04-26T07:38:18;11.20;;;5.37;;
71207;SDS011;58938;49.868;8.646;2023-04-26T07:40:44;11.35;;;5.32;;
71207;SDS011;58938;49.868;8.646;2023-04-26T07:43:10;11.25;;;6.18;;
71207;SDS011;58938;49.868;8.646;2023-04-26T07:45:37;14.75;;;6.25;;
71207;SDS011;58938;49.868;8.646;2023-04-26T07:48:03;12.35;;;5.47;;
71207;SDS011;58938;49.868;8.646;2023-04-26T07:50:29;10.20;;;4.67;;
71207;SDS011;58938;49.868;8.646;2023-04-26T07:52:55;11.60;;;4.95;;
71207;SDS011;58938;49.868;8.646;2023-04-26T07:55:21;10.65;;;5.53;;
71207;SDS011;58938;49.868;8.646;2023-04-26T07:57:47;10.52;;;4.78;;
71207;SDS011;58938;49.868;8.646;2023-04-26T08:00:13;10.68;;;5.65;;
71207;SDS011;58938;49.868;8.646;2023-04-26T08:02:43;12.60;;;5.33;;
71207;SDS011;58938;49.868;8.646;2023-04-26T08:05:12;11.02;;;5.40;;
71207;SDS011;58938;49.868;8.646;2023-04-26T08:07:39;12.07;;;6.00;;
71207;SDS011;58938;49.868;8.646;2023-04-26T08:10:05;11.52;;;5.82;;
71207;SDS011;58938;49.868;8.646;2023-04-26T08:12:32;8.50;;;4.85;;
71207;SDS011;58938;49.868;8.646;2023-04-26T08:15:01;11.63;;;5.77;;
71207;SDS011;58938;49.868;8.646;2023-04-26T08:17:29;9.00;;;4.18;;
71207;SDS011;58938;49.868;8.646;2023-04-26T08:19:56;13.43;;;5.95;;
71207;SDS011;58938;49.868;8.646;2023-04-26T08:22:22;8.85;;;4.78;;
71207;SDS011;58938;49.868;8.646;2023-04-26T08:24:49;11.17;;;4.47;;
71207;SDS011;58938;49.868;8.646;2023-04-26T08:27:15;12.35;;;4.80;;
71207;SDS011;58938;49.868;8.646;2023-04-26T08:29:41;9.70;;;5.20;;
71207;SDS011;58938;49.868;8.646;2023-04-26T08:32:07;12.95;;;5.07;;
71207;SDS011;58938;49.868;8.646;2023-04-26T08:34:33;10.93;;;5.05;;
71207;SDS011;58938;49.868;8.646;2023-04-26T08:36:59;8.60;;;4.63;;
71207;SDS011;58938;49.868;8.646;2023-04-26T08:39:26;9.77;;;4.78;;
71207;SDS011;58938;49.868;8.646;2023-04-26T08:41:52;11.15;;;5.38;;
71207;SDS011;58938;49.868;8.646;2023-04-26T08:44:22;8.95;;;4.78;;
71207;SDS011;58938;49.868;8.646;2023-04-26T08:49:37;13.77;;;5.53;;
71207;SDS011;58938;49.868;8.646;2023-04-26T08:52:07;10.15;;;5.07;;
71207;SDS011;58938;49.868;8.646;2023-04-26T08:54:33;12.93;;;4.68;;
71207;SDS011;58938;49.868;8.646;2023-04-26T08:56:59;7.65;;;4.18;;
71207;SDS011;58938;49.868;8.646;2023-04-26T08:59:26;11.77;;;4.63;;
71207;SDS011;58938;49.868;8.646;2023-04-26T09:01:53;9.60;;;3.93;;
71207;SDS011;58938;49.868;8.646;2023-04-26T09:04:19;11.77;;;4.10;;
71207;SDS011;58938;49.868;8.646;2023-04-26T09:06:45;7.68;;;4.03;;
71207;SDS011;58938;49.868;8.646;2023-04-26T09:09:13;8.63;;;4.28;;
71207;SDS011;58938;49.868;8.646;2023-04-26T09:11:55;12.98;;;5.72;;
71207;SDS011;58938;49.868;8.646;2023-04-26T09:14:21;10.43;;;4.70;;
71207;SDS011;58938;49.868;8.646;2023-04-26T09:16:47;9.68;;;5.28;;
71207;SDS011;58938;49.868;8.646;2023-04-26T09:19:13;9.82;;;4.35;;
71207;SDS011;58938;49.868;8.646;2023-04-26T09:21:45;9.90;;;4.97;;
71207;SDS011;58938;49.868;8.646;2023-04-26T09:24:12;7.73;;;4.03;;
71207;SDS011;58938;49.868;8.646;2023-04-26T09:26:39;14.13;;;4.53;;
71207;SDS011;58938;49.868;8.646;2023-04-26T09:29:15;12.23;;;4.65;;
71207;SDS011;58938;49.868;8.646;2023-04-26T09:31:42;9.40;;;4.53;;
71207;SDS011;58938;49.868;8.646;2023-04-26T09:34:11;10.10;;;4.88;;
71207;SDS011;58938;49.868;8.646;2023-04-26T09:39:13;10.70;;;4.47;;
71207;SDS011;58938;49.868;8.646;2023-04-26T09:41:43;8.60;;;4.10;;
71207;SDS011;58938;49.868;8.646;2023-04-26T09:44:22;10.55;;;4.68;;
71207;SDS011;58938;49.868;8.646;2023-04-26T09:46:58;8.73;;;4.50;;
71207;SDS011;58938;49.868;8.646;2023-04-26T09:49:25;9.87;;;3.63;;
71207;SDS011;58938;49.868;8.646;2023-04-26T09:52:13;9.88;;;3.95;;
71207;SDS011;58938;49.868;8.646;2023-04-26T09:57:04;29.00;;;5.75;;
71207;SDS011;58938;49.868;8.646;2023-04-26T09:59:38;12.15;;;5.07;;
71207;SDS011;58938;49.868;8.646;2023-04-26T10:02:05;8.43;;;4.13;;
71207;SDS011;58938;49.868;8.646;2023-04-26T10:04:35;9.23;;;4.35;;
71207;SDS011;58938;49.868;8.646;2023-04-26T10:07:01;10.20;;;4.60;;
71207;SDS011;58938;49.868;8.646;2023-04-26T10:09:27;9.50;;;4.28;;
71207;SDS011;58938;49.868;8.646;2023-04-26T10:11:53;11.48;;;4.72;;
71207;SDS011;58938;49.868;8.646;2023-04-26T10:14:20;11.80;;;4.40;;
71207;SDS011;58938;49.868;8.646;2023-04-26T10:16:46;9.43;;;4.30;;
71207;SDS011;58938;49.868;8.646;2023-04-26T10:19:13;11.52;;;4.85;;
71207;SDS011;58938;49.868;8.646;2023-04-26T10:21:39;8.57;;;3.50;;
71207;SDS011;58938;49.868;8.646;2023-04-26T10:24:06;9.07;;;4.80;;
71207;SDS011;58938;49.868;8.646;2023-04-26T10:26:51;12.77;;;4.97;;
71207;SDS011;58938;49.868;8.646;2023-04-26T10:29:22;9.10;;;3.97;;
71207;SDS011;58938;49.868;8.646;2023-04-26T10:34:28;8.88;;;3.42;;
71207;SDS011;58938;49.868;8.646;2023-04-26T10:37:08;10.30;;;4.45;;
71207;SDS011;58938;49.868;8.646;2023-04-26T10:39:34;8.93;;;3.70;;
71207;SDS011;58938;49.868;8.646;2023-04-26T10:42:20;7.65;;;3.10;;
71207;SDS011;58938;49.868;8.646;2023-04-26T10:44:47;10.43;;;4.30;;
71207;SDS011;58938;49.868;8.646;2023-04-26T10:50:08;6.07;;;3.45;;
71207;SDS011;58938;49.868;8.646;2023-04-26T10:55:40;8.85;;;4.43;;
71207;SDS011;58938;49.868;8.646;2023-04-26T11:03:35;11.02;;;4.70;;
71207;SDS011;58938;49.868;8.646;2023-04-26T11:06:20;7.83;;;3.83;;
71207;SDS011;58938;49.868;8.646;2023-04-26T11:08:48;10.27;;;4.85;;
71207;SDS011;58938;49.868;8.646;2023-04-26T11:11:15;9.05;;;4.45;;
71207;SDS011;58938;49.868;8.646;2023-04-26T11:13:43;10.80;;;3.45;;
71207;SDS011;58938;49.868;8.646;2023-04-26T11:16:10;7.30;;;3.40;;
71207;SDS011;58938;49.868;8.646;2023-04-26T11:18:37;8.80;;;3.23;;
71207;SDS011;58938;49.868;8.646;2023-04-26T11:21:04;8.13;;;3.92;;
71207;SDS011;58938;49.868;8.646;2023-04-26T11:23:31;8.85;;;3.50;;
71207;SDS011;58938;49.868;8.646;2023-04-26T11:26:00;7.38;;;3.22;;
71207;SDS011;58938;49.868;8.646;2023-04-26T11:28:33;6.03;;;3.42;;
71207;SDS011;58938;49.868;8.646;2023-04-26T11:30:59;12.10;;;3.30;;
71207;SDS011;58938;49.868;8.646;2023-04-26T11:33:25;8.20;;;3.10;;
71207;SDS011;58938;49.868;8.646;2023-04-26T11:35:52;7.35;;;3.70;;
71207;SDS011;58938;49.868;8.646;2023-04-26T11:38:22;6.75;;;3.05;;
71207;SDS011;58938;49.868;8.646;2023-04-26T11:40:52;6.97;;;3.60;;
71207;SDS011;58938;49.868;8.646;2023-04-26T11:43:18;7.30;;;3.30;;
71207;SDS011;58938;49.868;8.646;2023-04-26T11:45:44;7.22;;;3.10;;
71207;SDS011;58938;49.868;8.646;2023-04-26T11:48:11;9.45;;;3.83;;
71207;SDS011;58938;49.868;8.646;2023-04-26T11:50:38;5.68;;;3.45;;
71207;SDS011;58938;49.868;8.646;2023-04-26T11:53:06;6.95;;;3.58;;
71207;SDS011;58938;49.868;8.646;2023-04-26T11:55:33;8.43;;;3.90;;
71207;SDS011;58938;49.868;8.646;2023-04-26T11:58:00;7.43;;;3.17;;
71207;SDS011;58938;49.868;8.646;2023-04-26T12:00:27;10.10;;;4.85;;
71207;SDS011;58938;49.868;8.646;2023-04-26T12:02:53;10.32;;;4.60;;
71207;SDS011;58938;49.868;8.646;2023-04-26T12:05:28;7.25;;;3.38;;
71207;SDS011;58938;49.868;8.646;2023-04-26T12:07:57;9.87;;;3.87;;
71207;SDS011;58938;49.868;8.646;2023-04-26T12:10:25;6.38;;;3.47;;
71207;SDS011;58938;49.868;8.646;2023-04-26T12:12:52;8.02;;;3.30;;
71207;SDS011;58938;49.868;8.646;2023-04-26T12:15:23;7.50;;;4.28;;
71207;SDS011;58938;49.868;8.646;2023-04-26T12:17:59;6.10;;;3.90;;
71207;SDS011;58938;49.868;8.646;2023-04-26T12:20:29;7.57;;;3.63;;
71207;SDS011;58938;49.868;8.646;2023-04-26T12:22:59;8.88;;;4.10;;
71207;SDS011;58938;49.868;8.646;2023-04-26T12:25:26;7.15;;;3.28;;
71207;SDS011;58938;49.868;8.646;2023-04-26T12:27:53;9.18;;;3.95;;
71207;SDS011;58938;49.868;8.646;2023-04-26T12:30:19;7.32;;;3.20;;
71207;SDS011;58938;49.868;8.646;2023-04-26T12:32:46;8.10;;;3.67;;
71207;SDS011;58938;49.868;8.646;2023-04-26T12:35:12;9.05;;;4.13;;
71207;SDS011;58938;49.868;8.646;2023-04-26T12:37:38;8.20;;;3.63;;
71207;SDS011;58938;49.868;8.646;2023-04-26T12:40:04;11.45;;;4.10;;
71207;SDS011;58938;49.868;8.646;2023-04-26T12:42:31;10.52;;;4.25;;
71207;SDS011;58938;49.868;8.646;2023-04-26T12:44:57;9.13;;;4.17;;
71207;SDS011;58938;49.868;8.646;2023-04-26T12:47:23;8.20;;;3.20;;
71207;SDS011;58938;49.868;8.646;2023-04-26T12:49:49;9.18;;;4.78;;
71207;SDS011;58938;49.868;8.646;2023-04-26T12:52:16;7.55;;;3.50;;
71207;SDS011;58938;49.868;8.646;2023-04-26T12:54:42;6.77;;;3.87;;
71207;SDS011;58938;49.868;8.646;2023-04-26T12:57:08;6.45;;;2.83;;
71207;SDS011;58938;49.868;8.646;2023-04-26T12:59:35;6.68;;;3.92;;
71207;SDS011;58938;49.868;8.646;2023-04-26T13:02:01;6.88;;;3.10;;
71207;SDS011;58938;49.868;8.646;2023-04-26T13:04:27;6.47;;;3.72;;
71207;SDS011;58938;49.868;8.646;2023-04-26T13:06:53;6.53;;;3.43;;
71207;SDS011;58938;49.868;8.646;2023-04-26T13:09:20;8.10;;;3.80;;
71207;SDS011;58938;49.868;8.646;2023-04-26T13:11:46;8.52;;;3.38;;
71207;SDS011;58938;49.868;8.646;2023-04-26T13:14:12;6.78;;;3.72;;
71207;SDS011;58938;49.868;8.646;2023-04-26T13:16:38;8.95;;;4.03;;
71207;SDS011;58938;49.868;8.646;2023-04-26T13:19:07;8.43;;;3.80;;
71207;SDS011;58938;49.868;8.646;2023-04-26T13:21:34;7.25;;;3.75;;
71207;SDS011;58938;49.868;8.646;2023-04-26T13:24:00;9.60;;;3.88;;
71207;SDS011;58938;49.868;8.646;2023-04-26T13:26:26;7.55;;;3.30;;
71207;SDS011;58938;49.868;8.646;2023-04-26T13:28:52;6.63;;;2.65;;
71207;SDS011;58938;49.868;8.646;2023-04-26T13:31:18;7.00;;;3.87;;
71207;SDS011;58938;49.868;8.646;2023-04-26T13:33:45;7.57;;;3.33;;
71207;SDS011;58938;49.868;8.646;2023-04-26T13:36:13;6.90;;;3.55;;
71207;SDS011;58938;49.868;8.646;2023-04-26T13:38:40;6.63;;;3.47;;
71207;SDS011;58938;49.868;8.646;2023-04-26T13:41:06;8.90;;;4.20;;
71207;SDS011;58938;49.868;8.646;2023-04-26T13:43:32;5.80;;;3.43;;
71207;SDS011;58938;49.868;8.646;2023-04-26T13:45:58;7.95;;;3.67;;
71207;SDS011;58938;49.868;8.646;2023-04-26T13:48:25;9.00;;;3.75;;
71207;SDS011;58938;49.868;8.646;2023-04-26T13:50:51;9.32;;;3.38;;
71207;SDS011;58938;49.868;8.646;2023-04-26T13:53:17;9.77;;;3.42;;
71207;SDS011;58938;49.868;8.646;2023-04-26T13:55:44;8.17;;;3.30;;
71207;SDS011;58938;49.868;8.646;2023-04-26T13:58:10;6.00;;;3.25;;
71207;SDS011;58938;49.868;8.646;2023-04-26T14:00:36;7.03;;;3.80;;
71207;SDS011;58938;49.868;8.646;2023-04-26T14:03:02;8.38;;;3.45;;
71207;SDS011;58938;49.868;8.646;2023-04-26T14:05:28;6.03;;;3.13;;
71207;SDS011;58938;49.868;8.646;2023-04-26T14:07:54;9.52;;;3.70;;
71207;SDS011;58938;49.868;8.646;2023-04-26T14:10:21;9.23;;;4.47;;
71207;SDS011;58938;49.868;8.646;2023-04-26T14:12:47;7.53;;;3.35;;
71207;SDS011;58938;49.868;8.646;2023-04-26T14:15:13;8.80;;;4.10;;
71207;SDS011;58938;49.868;8.646;2023-04-26T14:17:39;7.57;;;3.60;;
71207;SDS011;58938;49.868;8.646;2023-04-26T14:20:05;7.05;;;3.60;;
71207;SDS011;58938;49.868;8.646;2023-04-26T14:22:32;7.28;;;4.22;;
71207;SDS011;58938;49.868;8.646;2023-04-26T14:24:58;7.95;;;3.90;;
71207;SDS011;58938;49.868;8.646;2023-04-26T14:27:24;8.15;;;3.80;;
71207;SDS011;58938;49.868;8.646;2023-04-26T14:29:50;7.67;;;3.80;;
71207;SDS011;58938;49.868;8.646;2023-04-26T14:32:16;8.52;;;3.70;;
71207;SDS011;58938;49.868;8.646;2023-04-26T14:34:42;5.47;;;3.25;;
71207;SDS011;58938;49.868;8.646;2023-04-26T14:37:08;9.40;;;3.30;;
71207;SDS011;58938;49.868;8.646;2023-04-26T14:39:34;7.47;;;3.30;;
71207;SDS011;58938;49.868;8.646;2023-04-26T14:42:01;7.35;;;3.47;;
71207;SDS011;58938;49.868;8.646;2023-04-26T14:44:27;7.03;;;3.97;;
71207;SDS011;58938;49.868;8.646;2023-04-26T14:46:54;9.32;;;3.95;;
71207;SDS011;58938;49.868;8.646;2023-04-26T14:49:20;8.25;;;4.28;;
71207;SDS011;58938;49.868;8.646;2023-04-26T14:51:46;8.30;;;4.80;;
71207;SDS011;58938;49.868;8.646;2023-04-26T14:54:12;9.00;;;3.60;;
71207;SDS011;58938;49.868;8.646;2023-04-26T14:56:39;11.10;;;4.15;;
71207;SDS011;58938;49.868;8.646;2023-04-26T14:59:05;7.65;;;3.92;;
71207;SDS011;58938;49.868;8.646;2023-04-26T15:01:31;8.38;;;3.70;;